Silvero — SDAK — position and weather

sailwx.info

Track history (hours):
 
Tides and Currents Weather Stations Pressure Air Temp Water Temp Dewpoint Dewpoint Depression Visibility Wind Speed Wind Dir Waves Ship Positions

Silvero

Last reported at 2016-Dec-05 16:32 UTC. Time now 2016-Dec-05 16:43 UTC.
Position N 59°24' E 018°21'.

Length 22 m.

Type: Passenger vessel. MMSI: 265568520.

Date/timePositionNaut miles runAvg speedWind from/ knotsBaromVisibWave heightAir tempDewpointWater temp
2016-Dec-05 16:32N 59°24' E 018°21'0 0.1
2016-Dec-05 14:10N 59°24' E 018°22'0 0.1
2016-Dec-05 11:09N 59°24' E 018°21'0 0.1
2016-Dec-05 10:32N 59°24' E 018°22'0 0.1
2016-Dec-05 09:20N 59°24' E 018°21'3 2.9
2016-Dec-05 08:09N 59°22' E 018°26'3 2.0
2016-Dec-05 06:29N 59°24' E 018°22'0 0.2
2016-Dec-05 05:06N 59°24' E 018°21'2 0.1
2016-Dec-04 17:30N 59°23' E 018°24'1 1.0
2016-Dec-04 16:33N 59°24' E 018°22'1 1.3
2016-Dec-04 15:28N 59°23' E 018°25'1 0.2
2016-Dec-04 10:32N 59°23' E 018°23'1 0.8
2016-Dec-04 09:14N 59°24' E 018°22'1 0.7
2016-Dec-04 07:32N 59°23' E 018°24'1 1.2
2016-Dec-04 06:23N 59°24' E 018°21'0 0.0
2016-Dec-04 05:33N 59°24' E 018°21'0 0.0
2016-Dec-04 04:29N 59°24' E 018°21'0 0.0
2016-Dec-04 03:33N 59°24' E 018°21'0 0.0
2016-Dec-04 02:33N 59°24' E 018°21'0 0.0
2016-Dec-04 01:32N 59°24' E 018°21'0 0.0
2016-Dec-04 00:33N 59°24' E 018°21'0 0.1
2016-Dec-03 15:32N 59°24' E 018°22'0 0.4
2016-Dec-03 14:27N 59°24' E 018°21'1 0.2
2016-Dec-03 08:32N 59°24' E 018°23'0 0.2
2016-Dec-03 07:07N 59°24' E 018°23'1 2.1
2016-Dec-03 06:33N 59°24' E 018°21'0 0.0
2016-Dec-03 05:31N 59°24' E 018°21'0 0.0
2016-Dec-03 04:33N 59°24' E 018°21'0 0.0
2016-Dec-03 03:33N 59°24' E 018°21'0 0.0
2016-Dec-03 02:33N 59°24' E 018°21'0 0.0
2016-Dec-03 01:31N 59°24' E 018°21'0 0.0
2016-Dec-03 00:33N 59°24' E 018°21'0 0.0
2016-Dec-02 23:31N 59°24' E 018°21'0 0.0
2016-Dec-02 11:07N 59°24' E 018°22'1 0.6
2016-Dec-02 08:31N 59°23' E 018°24'2 1.4
2016-Dec-02 07:24N 59°24' E 018°21'0 0.1
2016-Dec-02 06:30N 59°24' E 018°21'0 0.0
2016-Dec-01 16:27N 59°24' E 018°22'0 0.4
2016-Dec-01 15:33N 59°24' E 018°22'0 0.0
2016-Dec-01 14:28N 59°24' E 018°22'3 3.6
2016-Dec-01 13:33N 59°22' E 018°26'2 0.3
2016-Dec-01 07:10N 59°23' E 018°24'1 0.5
2016-Dec-01 04:18N 59°24' E 018°21'0 0.0
2016-Dec-01 03:33N 59°24' E 018°21'0 0.0
2016-Dec-01 02:33N 59°24' E 018°21'0 0.0
2016-Nov-30 16:30N 59°24' E 018°21'0 0.1
2016-Nov-30 14:27N 59°24' E 018°22'0 0.0
2016-Nov-30 09:06N 59°24' E 018°21'0 0.1
2016-Nov-30 07:28N 59°24' E 018°22'0 0.0
2016-Nov-30 05:33N 59°24' E 018°22'1 0.1
2016-Nov-29 17:10N 59°23' E 018°24'1 0.9
2016-Nov-29 15:28N 59°24' E 018°21'0 0.1
2016-Nov-29 14:29N 59°24' E 018°22'1 0.2
2016-Nov-29 08:32N 59°23' E 018°23'1 0.6
2016-Nov-29 06:30N 59°24' E 018°22'0 0.0
2016-Nov-28 17:20N 59°24' E 018°21'0 0.0
2016-Nov-28 15:28N 59°24' E 018°21'0 0.0
2016-Nov-28 14:25N 59°24' E 018°21'3 3.5
2016-Nov-28 13:30N 59°22' E 018°26'3 1.4
2016-Nov-28 11:17N 59°24' E 018°21'0 0.1
2016-Nov-28 10:33N 59°24' E 018°22'2 0.8
2016-Nov-28 08:24N 59°23' E 018°25'2 1.9
2016-Nov-28 07:31N 59°24' E 018°22'0 0.0
2016-Nov-28 06:30N 59°24' E 018°21'1 0.7
2016-Nov-28 05:29N 59°25' E 018°22'1 0.8
2016-Nov-28 04:33N 59°24' E 018°21'0 0.0
2016-Nov-28 03:33N 59°24' E 018°21'0 0.0
2016-Nov-28 02:33N 59°24' E 018°21'0 0.0
2016-Nov-28 01:28N 59°24' E 018°21'0 0.0
2016-Nov-28 00:23N 59°24' E 018°21'0 0.0
2016-Nov-27 23:33N 59°24' E 018°21'0 0.0
2016-Nov-27 22:32N 59°24' E 018°21'0 0.0
2016-Nov-27 21:33N 59°24' E 018°21'2 0.5
2016-Nov-27 17:22N 59°23' E 018°25'1 0.8
2016-Nov-27 16:25N 59°23' E 018°25'2 1.8
2016-Nov-27 15:13N 59°24' E 018°22'0 0.0
2016-Nov-27 12:26N 59°24' E 018°21'0 0.1
2016-Nov-27 11:28N 59°24' E 018°22'3 2.6
2016-Nov-27 10:12N 59°22' E 018°26'3 1.1
2016-Nov-27 07:23N 59°24' E 018°22'0 0.0
2016-Nov-26 14:30N 59°24' E 018°21'2 2.4
2016-Nov-26 13:32N 59°23' E 018°25'3 2.6
2016-Nov-26 12:33N 59°25' E 018°22'1 0.6
2016-Nov-26 11:10N 59°24' E 018°21'0 0.0
2016-Nov-26 10:27N 59°24' E 018°21'2 0.8
2016-Nov-26 08:28N 59°23' E 018°24'2 1.4
2016-Nov-26 07:21N 59°24' E 018°21'0 0.0
2016-Nov-26 06:25N 59°24' E 018°21'0 0.0
2016-Nov-26 05:32N 59°24' E 018°21'0 0.0
2016-Nov-26 04:23N 59°24' E 018°21'0 0.0
2016-Nov-26 02:08N 59°24' E 018°21'0 0.0
2016-Nov-26 01:33N 59°24' E 018°21'0 0.0
2016-Nov-26 00:26N 59°24' E 018°21'2 0.3
2016-Nov-25 17:27N 59°23' E 018°24'  
Track history (hours):
 
Tides and Currents Weather Stations Pressure Air Temp Water Temp Dewpoint Dewpoint Depression Visibility Wind Speed Wind Dir Waves Ship Positions

Silvero

Last reported at 2016-Dec-05 16:32 UTC. Time now 2016-Dec-05 16:43 UTC.
Position N 59°24' E 018°21'.

Length 22 m.

Type: Passenger vessel. MMSI: 265568520.

Date/timePositionNaut miles runAvg speedWind from/ knotsBaromVisibWave heightAir tempDewpointWater temp
2016-Dec-05 16:32N 59°24' E 018°21'0 0.1
2016-Dec-05 14:10N 59°24' E 018°22'0 0.1
2016-Dec-05 11:09N 59°24' E 018°21'0 0.1
2016-Dec-05 10:32N 59°24' E 018°22'0 0.1
2016-Dec-05 09:20N 59°24' E 018°21'3 2.9
2016-Dec-05 08:09N 59°22' E 018°26'3 2.0
2016-Dec-05 06:29N 59°24' E 018°22'0 0.2
2016-Dec-05 05:06N 59°24' E 018°21'2 0.1
2016-Dec-04 17:30N 59°23' E 018°24'1 1.0
2016-Dec-04 16:33N 59°24' E 018°22'1 1.3
2016-Dec-04 15:28N 59°23' E 018°25'1 0.2
2016-Dec-04 10:32N 59°23' E 018°23'1 0.8
2016-Dec-04 09:14N 59°24' E 018°22'1 0.7
2016-Dec-04 07:32N 59°23' E 018°24'1 1.2
2016-Dec-04 06:23N 59°24' E 018°21'0 0.0
2016-Dec-04 05:33N 59°24' E 018°21'0 0.0
2016-Dec-04 04:29N 59°24' E 018°21'0 0.0
2016-Dec-04 03:33N 59°24' E 018°21'0 0.0
2016-Dec-04 02:33N 59°24' E 018°21'0 0.0
2016-Dec-04 01:32N 59°24' E 018°21'0 0.0
2016-Dec-04 00:33N 59°24' E 018°21'0 0.1
2016-Dec-03 15:32N 59°24' E 018°22'0 0.4
2016-Dec-03 14:27N 59°24' E 018°21'1 0.2
2016-Dec-03 08:32N 59°24' E 018°23'0 0.2
2016-Dec-03 07:07N 59°24' E 018°23'1 2.1
2016-Dec-03 06:33N 59°24' E 018°21'0 0.0
2016-Dec-03 05:31N 59°24' E 018°21'0 0.0
2016-Dec-03 04:33N 59°24' E 018°21'0 0.0
2016-Dec-03 03:33N 59°24' E 018°21'0 0.0
2016-Dec-03 02:33N 59°24' E 018°21'0 0.0
2016-Dec-03 01:31N 59°24' E 018°21'0 0.0
2016-Dec-03 00:33N 59°24' E 018°21'0 0.0
2016-Dec-02 23:31N 59°24' E 018°21'0 0.0
2016-Dec-02 11:07N 59°24' E 018°22'1 0.6
2016-Dec-02 08:31N 59°23' E 018°24'2 1.4
2016-Dec-02 07:24N 59°24' E 018°21'0 0.1
2016-Dec-02 06:30N 59°24' E 018°21'0 0.0
2016-Dec-01 16:27N 59°24' E 018°22'0 0.4
2016-Dec-01 15:33N 59°24' E 018°22'0 0.0
2016-Dec-01 14:28N 59°24' E 018°22'3 3.6
2016-Dec-01 13:33N 59°22' E 018°26'2 0.3
2016-Dec-01 07:10N 59°23' E 018°24'1 0.5
2016-Dec-01 04:18N 59°24' E 018°21'0 0.0
2016-Dec-01 03:33N 59°24' E 018°21'0 0.0
2016-Dec-01 02:33N 59°24' E 018°21'0 0.0
2016-Nov-30 16:30N 59°24' E 018°21'0 0.1
2016-Nov-30 14:27N 59°24' E 018°22'0 0.0
2016-Nov-30 09:06N 59°24' E 018°21'0 0.1
2016-Nov-30 07:28N 59°24' E 018°22'0 0.0
2016-Nov-30 05:33N 59°24' E 018°22'1 0.1
2016-Nov-29 17:10N 59°23' E 018°24'1 0.9
2016-Nov-29 15:28N 59°24' E 018°21'0 0.1
2016-Nov-29 14:29N 59°24' E 018°22'1 0.2
2016-Nov-29 08:32N 59°23' E 018°23'1 0.6
2016-Nov-29 06:30N 59°24' E 018°22'0 0.0
2016-Nov-28 17:20N 59°24' E 018°21'0 0.0
2016-Nov-28 15:28N 59°24' E 018°21'0 0.0
2016-Nov-28 14:25N 59°24' E 018°21'3 3.5
2016-Nov-28 13:30N 59°22' E 018°26'3 1.4
2016-Nov-28 11:17N 59°24' E 018°21'0 0.1
2016-Nov-28 10:33N 59°24' E 018°22'2 0.8
2016-Nov-28 08:24N 59°23' E 018°25'2 1.9
2016-Nov-28 07:31N 59°24' E 018°22'0 0.0
2016-Nov-28 06:30N 59°24' E 018°21'1 0.7
2016-Nov-28 05:29N 59°25' E 018°22'1 0.8
2016-Nov-28 04:33N 59°24' E 018°21'0 0.0
2016-Nov-28 03:33N 59°24' E 018°21'0 0.0
2016-Nov-28 02:33N 59°24' E 018°21'0 0.0
2016-Nov-28 01:28N 59°24' E 018°21'0 0.0
2016-Nov-28 00:23N 59°24' E 018°21'0 0.0
2016-Nov-27 23:33N 59°24' E 018°21'0 0.0
2016-Nov-27 22:32N 59°24' E 018°21'0 0.0
2016-Nov-27 21:33N 59°24' E 018°21'2 0.5
2016-Nov-27 17:22N 59°23' E 018°25'1 0.8
2016-Nov-27 16:25N 59°23' E 018°25'2 1.8
2016-Nov-27 15:13N 59°24' E 018°22'0 0.0
2016-Nov-27 12:26N 59°24' E 018°21'0 0.1
2016-Nov-27 11:28N 59°24' E 018°22'3 2.6
2016-Nov-27 10:12N 59°22' E 018°26'3 1.1
2016-Nov-27 07:23N 59°24' E 018°22'0 0.0
2016-Nov-26 14:30N 59°24' E 018°21'2 2.4
2016-Nov-26 13:32N 59°23' E 018°25'3 2.6
2016-Nov-26 12:33N 59°25' E 018°22'1 0.6
2016-Nov-26 11:10N 59°24' E 018°21'0 0.0
2016-Nov-26 10:27N 59°24' E 018°21'2 0.8
2016-Nov-26 08:28N 59°23' E 018°24'2 1.4
2016-Nov-26 07:21N 59°24' E 018°21'0 0.0
2016-Nov-26 06:25N 59°24' E 018°21'0 0.0
2016-Nov-26 05:32N 59°24' E 018°21'0 0.0
2016-Nov-26 04:23N 59°24' E 018°21'0 0.0
2016-Nov-26 02:08N 59°24' E 018°21'0 0.0
2016-Nov-26 01:33N 59°24' E 018°21'0 0.0
2016-Nov-26 00:26N 59°24' E 018°21'2 0.3
2016-Nov-25 17:27N 59°23' E 018°24'  

Dump ship's entire track history